sensor_id;sensor_type;location;lat;lon;timestamp;P1;durP1;ratioP1;P2;durP2;ratioP2
23684;SDS011;12020;51.384;6.908;2024-01-27T00:02:21;12.52;;;4.15;;
23684;SDS011;12020;51.384;6.908;2024-01-27T00:04:57;14.55;;;4.50;;
23684;SDS011;12020;51.384;6.908;2024-01-27T00:07:25;15.15;;;4.82;;
23684;SDS011;12020;51.384;6.908;2024-01-27T00:09:57;15.07;;;4.47;;
23684;SDS011;12020;51.384;6.908;2024-01-27T00:12:36;13.50;;;4.70;;
23684;SDS011;12020;51.384;6.908;2024-01-27T00:17:46;13.57;;;4.40;;
23684;SDS011;12020;51.384;6.908;2024-01-27T00:20:15;11.35;;;3.95;;
23684;SDS011;12020;51.384;6.908;2024-01-27T00:22:53;13.85;;;4.10;;
23684;SDS011;12020;51.384;6.908;2024-01-27T00:25:23;14.63;;;4.15;;
23684;SDS011;12020;51.384;6.908;2024-01-27T00:27:50;12.25;;;4.00;;
23684;SDS011;12020;51.384;6.908;2024-01-27T00:32:53;12.38;;;4.70;;
23684;SDS011;12020;51.384;6.908;2024-01-27T00:35:29;14.05;;;4.60;;
23684;SDS011;12020;51.384;6.908;2024-01-27T00:37:55;11.23;;;4.07;;
23684;SDS011;12020;51.384;6.908;2024-01-27T00:43:42;14.38;;;4.72;;
23684;SDS011;12020;51.384;6.908;2024-01-27T00:46:08;13.77;;;4.60;;
23684;SDS011;12020;51.384;6.908;2024-01-27T00:48:40;12.15;;;4.00;;
23684;SDS011;12020;51.384;6.908;2024-01-27T00:51:24;11.82;;;4.45;;
23684;SDS011;12020;51.384;6.908;2024-01-27T00:56:53;15.10;;;4.15;;
23684;SDS011;12020;51.384;6.908;2024-01-27T00:59:33;10.53;;;3.97;;
23684;SDS011;12020;51.384;6.908;2024-01-27T01:04:38;11.48;;;4.05;;
23684;SDS011;12020;51.384;6.908;2024-01-27T01:07:10;12.38;;;4.03;;
23684;SDS011;12020;51.384;6.908;2024-01-27T01:12:20;12.95;;;4.38;;
23684;SDS011;12020;51.384;6.908;2024-01-27T01:14:47;10.20;;;3.80;;
23684;SDS011;12020;51.384;6.908;2024-01-27T01:17:26;15.23;;;4.73;;
23684;SDS011;12020;51.384;6.908;2024-01-27T01:20:01;9.90;;;4.23;;
23684;SDS011;12020;51.384;6.908;2024-01-27T01:22:36;7.83;;;3.70;;
23684;SDS011;12020;51.384;6.908;2024-01-27T01:27:35;12.40;;;4.13;;
23684;SDS011;12020;51.384;6.908;2024-01-27T01:30:07;10.40;;;4.15;;
23684;SDS011;12020;51.384;6.908;2024-01-27T01:32:48;13.00;;;4.50;;
23684;SDS011;12020;51.384;6.908;2024-01-27T01:35:15;12.82;;;4.18;;
23684;SDS011;12020;51.384;6.908;2024-01-27T01:40:14;11.70;;;4.70;;
23684;SDS011;12020;51.384;6.908;2024-01-27T01:45:55;14.18;;;4.90;;
23684;SDS011;12020;51.384;6.908;2024-01-27T01:48:24;13.35;;;4.53;;
23684;SDS011;12020;51.384;6.908;2024-01-27T01:50:51;14.43;;;4.75;;
23684;SDS011;12020;51.384;6.908;2024-01-27T01:56:06;13.93;;;4.50;;
23684;SDS011;12020;51.384;6.908;2024-01-27T01:58:41;9.70;;;4.03;;
23684;SDS011;12020;51.384;6.908;2024-01-27T02:01:07;14.50;;;4.97;;
23684;SDS011;12020;51.384;6.908;2024-01-27T02:03:39;9.68;;;3.70;;
23684;SDS011;12020;51.384;6.908;2024-01-27T02:06:07;11.35;;;4.32;;
23684;SDS011;12020;51.384;6.908;2024-01-27T02:08:36;11.10;;;4.07;;
23684;SDS011;12020;51.384;6.908;2024-01-27T02:11:03;12.47;;;4.57;;
23684;SDS011;12020;51.384;6.908;2024-01-27T07:09:45;19.38;;;6.72;;
23684;SDS011;12020;51.384;6.908;2024-01-27T07:12:11;15.52;;;6.22;;
23684;SDS011;12020;51.384;6.908;2024-01-27T07:14:37;12.03;;;5.83;;
23684;SDS011;12020;51.384;6.908;2024-01-27T07:17:03;13.83;;;6.33;;
23684;SDS011;12020;51.384;6.908;2024-01-27T07:19:31;13.43;;;6.10;;
23684;SDS011;12020;51.384;6.908;2024-01-27T07:21:59;13.48;;;6.00;;
23684;SDS011;12020;51.384;6.908;2024-01-27T07:24:26;15.63;;;6.22;;
23684;SDS011;12020;51.384;6.908;2024-01-27T07:26:53;14.90;;;6.10;;
23684;SDS011;12020;51.384;6.908;2024-01-27T07:29:19;13.02;;;5.72;;
23684;SDS011;12020;51.384;6.908;2024-01-27T07:31:45;14.73;;;6.03;;
23684;SDS011;12020;51.384;6.908;2024-01-27T07:34:11;12.67;;;6.00;;
23684;SDS011;12020;51.384;6.908;2024-01-27T07:36:36;14.65;;;6.05;;
23684;SDS011;12020;51.384;6.908;2024-01-27T07:39:02;15.10;;;5.88;;
23684;SDS011;12020;51.384;6.908;2024-01-27T07:41:30;16.08;;;6.60;;
23684;SDS011;12020;51.384;6.908;2024-01-27T07:43:56;15.82;;;6.13;;
23684;SDS011;12020;51.384;6.908;2024-01-27T07:46:21;14.90;;;6.50;;
23684;SDS011;12020;51.384;6.908;2024-01-27T07:48:48;14.93;;;6.27;;
23684;SDS011;12020;51.384;6.908;2024-01-27T07:51:14;17.13;;;6.43;;
23684;SDS011;12020;51.384;6.908;2024-01-27T07:53:40;13.53;;;5.93;;
23684;SDS011;12020;51.384;6.908;2024-01-27T07:56:07;12.63;;;5.93;;
23684;SDS011;12020;51.384;6.908;2024-01-27T07:58:33;13.30;;;6.18;;
23684;SDS011;12020;51.384;6.908;2024-01-27T08:00:58;14.00;;;5.97;;
23684;SDS011;12020;51.384;6.908;2024-01-27T08:03:25;14.85;;;6.45;;
23684;SDS011;12020;51.384;6.908;2024-01-27T08:05:51;14.70;;;6.00;;
23684;SDS011;12020;51.384;6.908;2024-01-27T08:08:16;11.85;;;6.07;;
23684;SDS011;12020;51.384;6.908;2024-01-27T08:10:43;14.80;;;6.13;;
23684;SDS011;12020;51.384;6.908;2024-01-27T08:13:12;13.82;;;5.72;;
23684;SDS011;12020;51.384;6.908;2024-01-27T08:15:37;15.25;;;6.10;;
23684;SDS011;12020;51.384;6.908;2024-01-27T08:18:03;15.18;;;6.10;;
23684;SDS011;12020;51.384;6.908;2024-01-27T08:20:29;14.37;;;6.10;;
23684;SDS011;12020;51.384;6.908;2024-01-27T08:22:55;16.40;;;6.20;;
23684;SDS011;12020;51.384;6.908;2024-01-27T08:25:21;12.57;;;6.05;;
23684;SDS011;12020;51.384;6.908;2024-01-27T08:27:47;16.77;;;6.30;;
23684;SDS011;12020;51.384;6.908;2024-01-27T08:30:13;15.02;;;6.13;;
23684;SDS011;12020;51.384;6.908;2024-01-27T08:32:40;13.90;;;5.70;;
23684;SDS011;12020;51.384;6.908;2024-01-27T08:35:10;13.88;;;5.50;;
23684;SDS011;12020;51.384;6.908;2024-01-27T08:37:38;12.93;;;5.55;;
23684;SDS011;12020;51.384;6.908;2024-01-27T08:40:06;16.25;;;5.68;;
23684;SDS011;12020;51.384;6.908;2024-01-27T08:42:34;14.50;;;5.78;;
23684;SDS011;12020;51.384;6.908;2024-01-27T08:45:00;16.47;;;5.87;;
23684;SDS011;12020;51.384;6.908;2024-01-27T08:47:26;14.75;;;5.53;;
23684;SDS011;12020;51.384;6.908;2024-01-27T08:49:53;17.53;;;6.00;;
23684;SDS011;12020;51.384;6.908;2024-01-27T08:52:18;14.27;;;6.00;;
23684;SDS011;12020;51.384;6.908;2024-01-27T08:54:44;12.77;;;5.00;;
23684;SDS011;12020;51.384;6.908;2024-01-27T08:57:10;13.27;;;5.23;;
23684;SDS011;12020;51.384;6.908;2024-01-27T08:59:35;15.05;;;5.38;;
23684;SDS011;12020;51.384;6.908;2024-01-27T09:02:02;15.55;;;5.72;;
23684;SDS011;12020;51.384;6.908;2024-01-27T09:04:27;15.73;;;5.60;;
23684;SDS011;12020;51.384;6.908;2024-01-27T09:06:53;13.57;;;5.10;;
23684;SDS011;12020;51.384;6.908;2024-01-27T09:09:19;13.37;;;5.73;;
23684;SDS011;12020;51.384;6.908;2024-01-27T09:11:44;13.00;;;5.60;;
23684;SDS011;12020;51.384;6.908;2024-01-27T09:14:11;13.63;;;5.22;;
23684;SDS011;12020;51.384;6.908;2024-01-27T09:16:37;13.90;;;5.18;;
23684;SDS011;12020;51.384;6.908;2024-01-27T09:19:03;14.13;;;5.80;;
23684;SDS011;12020;51.384;6.908;2024-01-27T09:21:29;14.20;;;5.43;;
23684;SDS011;12020;51.384;6.908;2024-01-27T09:23:56;11.30;;;5.07;;
23684;SDS011;12020;51.384;6.908;2024-01-27T09:26:23;14.50;;;5.10;;
23684;SDS011;12020;51.384;6.908;2024-01-27T09:28:49;11.82;;;5.43;;
23684;SDS011;12020;51.384;6.908;2024-01-27T09:31:21;14.85;;;5.07;;
23684;SDS011;12020;51.384;6.908;2024-01-27T09:33:50;13.70;;;5.47;;
23684;SDS011;12020;51.384;6.908;2024-01-27T09:36:17;16.83;;;5.70;;
23684;SDS011;12020;51.384;6.908;2024-01-27T09:38:44;13.38;;;5.10;;
23684;SDS011;12020;51.384;6.908;2024-01-27T09:41:12;14.83;;;5.60;;
23684;SDS011;12020;51.384;6.908;2024-01-27T09:43:42;13.63;;;5.05;;
23684;SDS011;12020;51.384;6.908;2024-01-27T09:46:10;15.50;;;5.18;;
23684;SDS011;12020;51.384;6.908;2024-01-27T09:48:36;12.02;;;4.80;;
23684;SDS011;12020;51.384;6.908;2024-01-27T09:51:04;13.88;;;4.70;;
23684;SDS011;12020;51.384;6.908;2024-01-27T09:53:32;12.95;;;5.32;;
23684;SDS011;12020;51.384;6.908;2024-01-27T09:55:59;13.07;;;4.65;;
23684;SDS011;12020;51.384;6.908;2024-01-27T09:58:28;12.65;;;4.90;;
23684;SDS011;12020;51.384;6.908;2024-01-27T10:00:58;14.38;;;5.18;;
23684;SDS011;12020;51.384;6.908;2024-01-27T10:03:25;13.60;;;4.93;;
23684;SDS011;12020;51.384;6.908;2024-01-27T10:05:53;14.93;;;4.65;;
23684;SDS011;12020;51.384;6.908;2024-01-27T10:08:20;13.85;;;5.57;;
23684;SDS011;12020;51.384;6.908;2024-01-27T10:10:46;13.40;;;5.00;;
23684;SDS011;12020;51.384;6.908;2024-01-27T10:13:16;12.27;;;4.20;;
23684;SDS011;12020;51.384;6.908;2024-01-27T10:15:43;12.45;;;4.72;;
23684;SDS011;12020;51.384;6.908;2024-01-27T10:18:09;12.13;;;4.60;;
23684;SDS011;12020;51.384;6.908;2024-01-27T10:20:39;14.15;;;4.75;;
23684;SDS011;12020;51.384;6.908;2024-01-27T10:23:14;12.98;;;4.90;;
23684;SDS011;12020;51.384;6.908;2024-01-27T10:25:46;12.95;;;5.20;;
23684;SDS011;12020;51.384;6.908;2024-01-27T10:28:14;12.40;;;4.88;;
23684;SDS011;12020;51.384;6.908;2024-01-27T10:30:41;12.13;;;4.65;;
23684;SDS011;12020;51.384;6.908;2024-01-27T10:33:13;10.80;;;4.55;;
23684;SDS011;12020;51.384;6.908;2024-01-27T10:35:40;12.38;;;4.68;;
23684;SDS011;12020;51.384;6.908;2024-01-27T10:38:09;14.85;;;5.32;;
23684;SDS011;12020;51.384;6.908;2024-01-27T10:40:35;12.73;;;5.05;;
23684;SDS011;12020;51.384;6.908;2024-01-27T10:43:06;13.95;;;5.00;;
23684;SDS011;12020;51.384;6.908;2024-01-27T10:45:39;11.07;;;4.93;;
23684;SDS011;12020;51.384;6.908;2024-01-27T10:48:07;13.20;;;4.85;;
23684;SDS011;12020;51.384;6.908;2024-01-27T10:50:38;11.48;;;4.70;;
23684;SDS011;12020;51.384;6.908;2024-01-27T10:53:09;13.57;;;5.20;;
23684;SDS011;12020;51.384;6.908;2024-01-27T10:55:42;12.40;;;5.28;;
23684;SDS011;12020;51.384;6.908;2024-01-27T10:58:11;15.65;;;5.25;;
23684;SDS011;12020;51.384;6.908;2024-01-27T11:00:38;13.50;;;5.10;;
23684;SDS011;12020;51.384;6.908;2024-01-27T11:03:06;12.98;;;5.18;;
23684;SDS011;12020;51.384;6.908;2024-01-27T11:05:34;11.13;;;4.88;;
23684;SDS011;12020;51.384;6.908;2024-01-27T11:08:00;14.68;;;5.38;;
23684;SDS011;12020;51.384;6.908;2024-01-27T11:10:27;14.30;;;5.30;;
23684;SDS011;12020;51.384;6.908;2024-01-27T11:13:01;13.48;;;5.05;;
23684;SDS011;12020;51.384;6.908;2024-01-27T11:15:28;12.00;;;5.18;;
23684;SDS011;12020;51.384;6.908;2024-01-27T11:17:56;12.20;;;4.63;;
23684;SDS011;12020;51.384;6.908;2024-01-27T11:20:23;14.90;;;5.15;;
23684;SDS011;12020;51.384;6.908;2024-01-27T11:22:49;12.02;;;4.95;;
23684;SDS011;12020;51.384;6.908;2024-01-27T11:25:16;11.77;;;5.00;;
23684;SDS011;12020;51.384;6.908;2024-01-27T11:27:43;13.93;;;5.38;;
23684;SDS011;12020;51.384;6.908;2024-01-27T11:30:32;13.37;;;5.57;;
23684;SDS011;12020;51.384;6.908;2024-01-27T11:33:04;12.32;;;5.43;;
23684;SDS011;12020;51.384;6.908;2024-01-27T11:35:29;13.43;;;5.30;;
23684;SDS011;12020;51.384;6.908;2024-01-27T11:37:55;13.10;;;5.28;;
23684;SDS011;12020;51.384;6.908;2024-01-27T11:40:21;12.93;;;4.68;;
23684;SDS011;12020;51.384;6.908;2024-01-27T11:42:55;13.60;;;5.10;;
23684;SDS011;12020;51.384;6.908;2024-01-27T11:45:28;13.50;;;5.13;;
23684;SDS011;12020;51.384;6.908;2024-01-27T11:47:59;12.90;;;4.55;;
23684;SDS011;12020;51.384;6.908;2024-01-27T11:50:25;12.80;;;4.70;;
23684;SDS011;12020;51.384;6.908;2024-01-27T11:52:53;12.10;;;4.57;;
23684;SDS011;12020;51.384;6.908;2024-01-27T11:55:19;13.15;;;4.60;;
23684;SDS011;12020;51.384;6.908;2024-01-27T11:57:44;14.43;;;4.73;;
23684;SDS011;12020;51.384;6.908;2024-01-27T12:00:10;13.47;;;5.00;;
23684;SDS011;12020;51.384;6.908;2024-01-27T12:02:37;11.52;;;4.93;;
23684;SDS011;12020;51.384;6.908;2024-01-27T12:05:04;13.25;;;4.60;;
23684;SDS011;12020;51.384;6.908;2024-01-27T12:07:32;13.30;;;5.00;;
23684;SDS011;12020;51.384;6.908;2024-01-27T12:09:58;13.05;;;4.40;;
23684;SDS011;12020;51.384;6.908;2024-01-27T12:12:25;13.85;;;5.07;;
23684;SDS011;12020;51.384;6.908;2024-01-27T12:14:52;12.25;;;4.80;;
23684;SDS011;12020;51.384;6.908;2024-01-27T12:17:18;12.95;;;5.15;;
23684;SDS011;12020;51.384;6.908;2024-01-27T12:19:48;14.27;;;5.00;;
23684;SDS011;12020;51.384;6.908;2024-01-27T12:22:25;14.20;;;5.13;;
23684;SDS011;12020;51.384;6.908;2024-01-27T12:25:07;14.25;;;5.28;;
23684;SDS011;12020;51.384;6.908;2024-01-27T12:27:34;13.85;;;4.85;;
23684;SDS011;12020;51.384;6.908;2024-01-27T12:30:00;15.05;;;5.30;;
23684;SDS011;12020;51.384;6.908;2024-01-27T12:32:26;10.15;;;4.45;;
23684;SDS011;12020;51.384;6.908;2024-01-27T12:34:54;12.65;;;5.00;;
23684;SDS011;12020;51.384;6.908;2024-01-27T12:37:21;15.18;;;5.15;;
23684;SDS011;12020;51.384;6.908;2024-01-27T12:39:48;12.70;;;4.70;;
23684;SDS011;12020;51.384;6.908;2024-01-27T12:42:17;12.88;;;4.65;;
23684;SDS011;12020;51.384;6.908;2024-01-27T12:44:43;12.60;;;4.88;;
23684;SDS011;12020;51.384;6.908;2024-01-27T12:47:15;12.13;;;4.67;;
23684;SDS011;12020;51.384;6.908;2024-01-27T12:50:11;14.45;;;5.13;;
23684;SDS011;12020;51.384;6.908;2024-01-27T12:53:00;13.63;;;4.70;;
23684;SDS011;12020;51.384;6.908;2024-01-27T12:58:50;10.18;;;4.00;;
23684;SDS011;12020;51.384;6.908;2024-01-27T13:03:50;10.63;;;4.18;;
23684;SDS011;12020;51.384;6.908;2024-01-27T13:09:45;13.25;;;5.05;;
23684;SDS011;12020;51.384;6.908;2024-01-27T13:14:49;10.93;;;4.90;;
23684;SDS011;12020;51.384;6.908;2024-01-27T13:17:15;10.73;;;4.43;;
23684;SDS011;12020;51.384;6.908;2024-01-27T13:19:45;11.75;;;4.68;;
23684;SDS011;12020;51.384;6.908;2024-01-27T13:22:14;9.23;;;4.30;;
23684;SDS011;12020;51.384;6.908;2024-01-27T13:28:22;13.77;;;4.60;;
23684;SDS011;12020;51.384;6.908;2024-01-27T13:33:41;11.90;;;4.00;;
23684;SDS011;12020;51.384;6.908;2024-01-27T13:45:04;11.68;;;4.18;;
23684;SDS011;12020;51.384;6.908;2024-01-27T13:51:04;10.70;;;4.07;;
23684;SDS011;12020;51.384;6.908;2024-01-27T13:53:51;14.82;;;4.78;;
23684;SDS011;12020;51.384;6.908;2024-01-27T13:56:22;11.25;;;4.78;;
23684;SDS011;12020;51.384;6.908;2024-01-27T13:58:53;12.77;;;4.43;;
23684;SDS011;12020;51.384;6.908;2024-01-27T14:03:57;14.73;;;4.35;;
23684;SDS011;12020;51.384;6.908;2024-01-27T14:06:32;12.20;;;4.20;;
23684;SDS011;12020;51.384;6.908;2024-01-27T14:09:09;10.60;;;4.40;;
23684;SDS011;12020;51.384;6.908;2024-01-27T14:14:45;9.07;;;3.90;;
23684;SDS011;12020;51.384;6.908;2024-01-27T14:17:16;11.38;;;4.03;;
23684;SDS011;12020;51.384;6.908;2024-01-27T14:19:46;10.80;;;4.20;;
23684;SDS011;12020;51.384;6.908;2024-01-27T14:23:00;12.20;;;4.00;;
23684;SDS011;12020;51.384;6.908;2024-01-27T14:25:35;10.27;;;3.63;;
23684;SDS011;12020;51.384;6.908;2024-01-27T14:31:09;8.40;;;3.63;;
23684;SDS011;12020;51.384;6.908;2024-01-27T14:37:17;10.90;;;3.55;;
23684;SDS011;12020;51.384;6.908;2024-01-27T14:39:53;11.63;;;3.70;;
23684;SDS011;12020;51.384;6.908;2024-01-27T14:51:51;8.87;;;3.37;;
23684;SDS011;12020;51.384;6.908;2024-01-27T14:57:05;8.20;;;3.13;;
23684;SDS011;12020;51.384;6.908;2024-01-27T14:59:57;9.80;;;3.22;;
23684;SDS011;12020;51.384;6.908;2024-01-27T15:02:38;9.02;;;3.10;;
23684;SDS011;12020;51.384;6.908;2024-01-27T15:05:04;11.13;;;4.00;;
23684;SDS011;12020;51.384;6.908;2024-01-27T15:07:51;11.75;;;4.40;;
23684;SDS011;12020;51.384;6.908;2024-01-27T15:10:20;10.87;;;3.70;;
23684;SDS011;12020;51.384;6.908;2024-01-27T15:12:51;10.88;;;3.75;;
23684;SDS011;12020;51.384;6.908;2024-01-27T15:15:48;11.07;;;4.05;;
23684;SDS011;12020;51.384;6.908;2024-01-27T15:28:16;9.80;;;3.47;;
23684;SDS011;12020;51.384;6.908;2024-01-27T15:30:44;7.73;;;3.63;;
23684;SDS011;12020;51.384;6.908;2024-01-27T15:33:16;8.48;;;3.38;;
23684;SDS011;12020;51.384;6.908;2024-01-27T15:36:10;9.20;;;3.70;;
23684;SDS011;12020;51.384;6.908;2024-01-27T15:41:33;10.10;;;3.35;;
23684;SDS011;12020;51.384;6.908;2024-01-27T15:44:04;11.00;;;3.80;;
23684;SDS011;12020;51.384;6.908;2024-01-27T15:46:30;8.98;;;3.20;;
23684;SDS011;12020;51.384;6.908;2024-01-27T15:49:09;10.32;;;3.15;;
23684;SDS011;12020;51.384;6.908;2024-01-27T15:51:58;9.68;;;3.40;;
23684;SDS011;12020;51.384;6.908;2024-01-27T15:54:24;9.75;;;3.30;;
23684;SDS011;12020;51.384;6.908;2024-01-27T15:56:51;8.38;;;2.75;;
23684;SDS011;12020;51.384;6.908;2024-01-27T15:59:18;10.02;;;3.45;;
23684;SDS011;12020;51.384;6.908;2024-01-27T16:01:52;8.82;;;3.40;;
23684;SDS011;12020;51.384;6.908;2024-01-27T16:04:25;9.15;;;3.42;;
23684;SDS011;12020;51.384;6.908;2024-01-27T16:06:52;7.78;;;2.83;;
23684;SDS011;12020;51.384;6.908;2024-01-27T16:09:20;10.47;;;3.20;;
23684;SDS011;12020;51.384;6.908;2024-01-27T16:11:46;9.13;;;3.00;;
23684;SDS011;12020;51.384;6.908;2024-01-27T16:14:19;8.35;;;2.70;;
23684;SDS011;12020;51.384;6.908;2024-01-27T16:16:48;8.15;;;3.20;;
23684;SDS011;12020;51.384;6.908;2024-01-27T16:19:23;6.70;;;3.03;;
23684;SDS011;12020;51.384;6.908;2024-01-27T16:21:50;9.70;;;3.35;;
23684;SDS011;12020;51.384;6.908;2024-01-27T16:24:25;8.57;;;3.20;;
23684;SDS011;12020;51.384;6.908;2024-01-27T16:26:51;8.77;;;3.38;;
23684;SDS011;12020;51.384;6.908;2024-01-27T16:29:29;8.48;;;3.53;;
23684;SDS011;12020;51.384;6.908;2024-01-27T16:31:55;8.80;;;3.47;;
23684;SDS011;12020;51.384;6.908;2024-01-27T16:34:21;8.98;;;3.80;;
23684;SDS011;12020;51.384;6.908;2024-01-27T16:36:50;8.82;;;3.95;;
23684;SDS011;12020;51.384;6.908;2024-01-27T16:39:22;9.97;;;3.83;;
23684;SDS011;12020;51.384;6.908;2024-01-27T16:41:48;9.07;;;3.72;;
23684;SDS011;12020;51.384;6.908;2024-01-27T16:44:25;9.47;;;4.13;;
23684;SDS011;12020;51.384;6.908;2024-01-27T16:47:03;9.65;;;4.15;;
23684;SDS011;12020;51.384;6.908;2024-01-27T16:49:36;10.52;;;4.88;;
23684;SDS011;12020;51.384;6.908;2024-01-27T17:04:55;8.20;;;3.70;;
23684;SDS011;12020;51.384;6.908;2024-01-27T17:11:08;8.80;;;3.70;;
23684;SDS011;12020;51.384;6.908;2024-01-27T17:13:43;9.75;;;3.47;;
23684;SDS011;12020;51.384;6.908;2024-01-27T17:23:42;8.27;;;3.43;;
23684;SDS011;12020;51.384;6.908;2024-01-27T17:26:23;8.93;;;4.25;;
23684;SDS011;12020;51.384;6.908;2024-01-27T17:28:49;12.30;;;4.40;;
23684;SDS011;12020;51.384;6.908;2024-01-27T17:31:17;9.55;;;4.72;;
23684;SDS011;12020;51.384;6.908;2024-01-27T17:33:43;10.27;;;5.05;;
23684;SDS011;12020;51.384;6.908;2024-01-27T17:36:10;10.80;;;4.47;;
23684;SDS011;12020;51.384;6.908;2024-01-27T17:38:36;7.28;;;4.40;;
23684;SDS011;12020;51.384;6.908;2024-01-27T17:41:02;11.48;;;4.50;;
23684;SDS011;12020;51.384;6.908;2024-01-27T17:49:00;9.87;;;4.43;;
23684;SDS011;12020;51.384;6.908;2024-01-27T17:51:34;8.75;;;4.85;;
23684;SDS011;12020;51.384;6.908;2024-01-27T17:54:04;10.95;;;5.03;;
23684;SDS011;12020;51.384;6.908;2024-01-27T17:56:34;9.80;;;4.47;;
23684;SDS011;12020;51.384;6.908;2024-01-27T17:59:02;9.57;;;4.95;;
23684;SDS011;12020;51.384;6.908;2024-01-27T18:01:33;11.52;;;5.20;;
23684;SDS011;12020;51.384;6.908;2024-01-27T18:04:03;9.90;;;5.60;;
23684;SDS011;12020;51.384;6.908;2024-01-27T18:06:33;9.80;;;4.63;;
23684;SDS011;12020;51.384;6.908;2024-01-27T18:09:01;8.10;;;4.47;;
23684;SDS011;12020;51.384;6.908;2024-01-27T18:11:31;9.93;;;4.80;;
23684;SDS011;12020;51.384;6.908;2024-01-27T18:16:29;9.60;;;5.13;;
23684;SDS011;12020;51.384;6.908;2024-01-27T18:18:57;10.17;;;4.70;;
23684;SDS011;12020;51.384;6.908;2024-01-27T18:21:23;12.10;;;5.50;;
23684;SDS011;12020;51.384;6.908;2024-01-27T18:23:56;10.23;;;5.25;;
23684;SDS011;12020;51.384;6.908;2024-01-27T18:26:23;13.27;;;5.40;;
23684;SDS011;12020;51.384;6.908;2024-01-27T18:28:50;11.10;;;5.63;;
23684;SDS011;12020;51.384;6.908;2024-01-27T18:31:19;10.13;;;5.63;;
23684;SDS011;12020;51.384;6.908;2024-01-27T18:33:46;11.40;;;5.82;;
23684;SDS011;12020;51.384;6.908;2024-01-27T18:36:17;14.02;;;6.22;;
23684;SDS011;12020;51.384;6.908;2024-01-27T18:41:15;9.63;;;5.45;;
23684;SDS011;12020;51.384;6.908;2024-01-27T18:43:47;11.00;;;5.70;;
23684;SDS011;12020;51.384;6.908;2024-01-27T18:46:15;11.83;;;6.07;;
23684;SDS011;12020;51.384;6.908;2024-01-27T18:48:44;10.37;;;5.90;;
23684;SDS011;12020;51.384;6.908;2024-01-27T18:51:14;10.35;;;5.55;;
23684;SDS011;12020;51.384;6.908;2024-01-27T18:53:43;11.55;;;5.70;;
23684;SDS011;12020;51.384;6.908;2024-01-27T18:56:16;11.75;;;5.90;;
23684;SDS011;12020;51.384;6.908;2024-01-27T18:58:44;10.57;;;5.95;;
23684;SDS011;12020;51.384;6.908;2024-01-27T19:01:10;12.87;;;6.03;;
23684;SDS011;12020;51.384;6.908;2024-01-27T19:06:33;13.27;;;6.50;;
23684;SDS011;12020;51.384;6.908;2024-01-27T19:09:00;13.88;;;6.97;;
23684;SDS011;12020;51.384;6.908;2024-01-27T19:11:26;11.25;;;6.47;;
23684;SDS011;12020;51.384;6.908;2024-01-27T19:13:53;14.13;;;7.18;;
23684;SDS011;12020;51.384;6.908;2024-01-27T19:16:21;12.57;;;7.20;;
23684;SDS011;12020;51.384;6.908;2024-01-27T19:18:48;15.60;;;7.50;;
23684;SDS011;12020;51.384;6.908;2024-01-27T19:21:14;12.00;;;7.22;;
23684;SDS011;12020;51.384;6.908;2024-01-27T19:23:46;12.27;;;6.93;;
23684;SDS011;12020;51.384;6.908;2024-01-27T19:26:13;10.93;;;6.75;;
23684;SDS011;12020;51.384;6.908;2024-01-27T19:28:39;13.15;;;7.10;;
23684;SDS011;12020;51.384;6.908;2024-01-27T19:31:14;12.87;;;7.20;;
23684;SDS011;12020;51.384;6.908;2024-01-27T19:33:41;11.67;;;6.80;;
23684;SDS011;12020;51.384;6.908;2024-01-27T19:41:12;12.00;;;6.82;;
23684;SDS011;12020;51.384;6.908;2024-01-27T19:43:40;13.02;;;7.32;;
23684;SDS011;12020;51.384;6.908;2024-01-27T19:46:24;12.10;;;6.78;;
23684;SDS011;12020;51.384;6.908;2024-01-27T19:49:03;13.25;;;7.25;;
23684;SDS011;12020;51.384;6.908;2024-01-27T19:51:54;14.43;;;7.25;;
23684;SDS011;12020;51.384;6.908;2024-01-27T19:54:31;11.67;;;6.90;;
23684;SDS011;12020;51.384;6.908;2024-01-27T19:57:07;14.15;;;7.60;;
23684;SDS011;12020;51.384;6.908;2024-01-27T19:59:33;14.83;;;7.30;;
23684;SDS011;12020;51.384;6.908;2024-01-27T20:02:01;14.90;;;7.67;;
23684;SDS011;12020;51.384;6.908;2024-01-27T20:04:28;11.05;;;6.93;;
23684;SDS011;12020;51.384;6.908;2024-01-27T20:06:57;12.73;;;7.20;;
23684;SDS011;12020;51.384;6.908;2024-01-27T20:11:59;12.57;;;7.30;;
23684;SDS011;12020;51.384;6.908;2024-01-27T20:17:54;10.82;;;7.38;;
23684;SDS011;12020;51.384;6.908;2024-01-27T20:20:21;13.63;;;8.13;;
23684;SDS011;12020;51.384;6.908;2024-01-27T20:29:21;13.23;;;7.63;;
23684;SDS011;12020;51.384;6.908;2024-01-27T20:34:23;12.85;;;7.53;;
23684;SDS011;12020;51.384;6.908;2024-01-27T20:36:56;12.00;;;7.22;;
23684;SDS011;12020;51.384;6.908;2024-01-27T20:39:29;11.02;;;6.78;;
23684;SDS011;12020;51.384;6.908;2024-01-27T20:41:57;14.30;;;7.80;;
23684;SDS011;12020;51.384;6.908;2024-01-27T20:44:48;10.23;;;5.03;;
23684;SDS011;12020;51.384;6.908;2024-01-27T20:47:15;16.35;;;10.38;;
23684;SDS011;12020;51.384;6.908;2024-01-27T20:49:42;9.82;;;6.97;;
23684;SDS011;12020;51.384;6.908;2024-01-27T20:52:11;15.35;;;7.75;;
23684;SDS011;12020;51.384;6.908;2024-01-27T20:54:37;11.67;;;7.60;;
23684;SDS011;12020;51.384;6.908;2024-01-27T20:57:04;13.02;;;8.27;;
23684;SDS011;12020;51.384;6.908;2024-01-27T20:59:32;12.73;;;8.00;;
23684;SDS011;12020;51.384;6.908;2024-01-27T21:02:05;14.40;;;8.23;;
23684;SDS011;12020;51.384;6.908;2024-01-27T21:04:35;12.68;;;7.97;;
23684;SDS011;12020;51.384;6.908;2024-01-27T21:07:04;14.77;;;7.72;;
23684;SDS011;12020;51.384;6.908;2024-01-27T21:09:32;10.98;;;8.27;;
23684;SDS011;12020;51.384;6.908;2024-01-27T21:12:01;13.83;;;8.23;;
23684;SDS011;12020;51.384;6.908;2024-01-27T21:14:28;11.40;;;7.72;;
23684;SDS011;12020;51.384;6.908;2024-01-27T21:16:59;14.48;;;8.20;;
23684;SDS011;12020;51.384;6.908;2024-01-27T21:19:35;14.18;;;8.70;;
23684;SDS011;12020;51.384;6.908;2024-01-27T21:22:12;12.10;;;8.00;;
23684;SDS011;12020;51.384;6.908;2024-01-27T21:24:47;12.80;;;8.48;;
23684;SDS011;12020;51.384;6.908;2024-01-27T21:27:22;13.30;;;8.00;;
23684;SDS011;12020;51.384;6.908;2024-01-27T21:32:19;14.43;;;7.80;;
23684;SDS011;12020;51.384;6.908;2024-01-27T21:34:50;12.52;;;8.00;;
23684;SDS011;12020;51.384;6.908;2024-01-27T21:37:17;15.90;;;7.40;;
23684;SDS011;12020;51.384;6.908;2024-01-27T21:39:43;10.55;;;7.22;;
23684;SDS011;12020;51.384;6.908;2024-01-27T21:42:09;11.05;;;6.85;;
23684;SDS011;12020;51.384;6.908;2024-01-27T21:44:35;11.55;;;8.35;;
23684;SDS011;12020;51.384;6.908;2024-01-27T21:47:01;14.90;;;9.07;;
23684;SDS011;12020;51.384;6.908;2024-01-27T21:49:26;14.15;;;8.77;;
23684;SDS011;12020;51.384;6.908;2024-01-27T21:51:52;14.43;;;8.40;;
23684;SDS011;12020;51.384;6.908;2024-01-27T21:54:17;14.32;;;8.55;;
23684;SDS011;12020;51.384;6.908;2024-01-27T21:56:43;15.90;;;8.50;;
23684;SDS011;12020;51.384;6.908;2024-01-27T21:59:09;14.50;;;8.40;;
23684;SDS011;12020;51.384;6.908;2024-01-27T22:01:35;12.93;;;7.88;;
23684;SDS011;12020;51.384;6.908;2024-01-27T22:04:01;13.95;;;8.00;;
23684;SDS011;12020;51.384;6.908;2024-01-27T22:06:26;12.10;;;7.53;;
23684;SDS011;12020;51.384;6.908;2024-01-27T22:08:52;13.00;;;7.63;;
23684;SDS011;12020;51.384;6.908;2024-01-27T22:11:18;12.83;;;7.53;;
23684;SDS011;12020;51.384;6.908;2024-01-27T22:13:45;14.38;;;8.32;;
23684;SDS011;12020;51.384;6.908;2024-01-27T22:16:11;15.27;;;8.33;;
23684;SDS011;12020;51.384;6.908;2024-01-27T22:18:36;12.82;;;7.95;;
23684;SDS011;12020;51.384;6.908;2024-01-27T22:21:02;12.02;;;6.35;;
23684;SDS011;12020;51.384;6.908;2024-01-27T22:23:29;9.95;;;4.80;;